createdAt,value
2022-11-16T00:02:12.699Z,99826.09
2022-11-16T00:04:39.377Z,99823.63
2022-11-16T00:07:06.472Z,99814.59
2022-11-16T00:09:33.462Z,99812.94
2022-11-16T00:12:02.163Z,99817.34
2022-11-16T00:14:34.771Z,99818.16
2022-11-16T00:17:01.865Z,99813.78
2022-11-16T00:19:29.095Z,99817.63
2022-11-16T00:21:56.185Z,99829.09
2022-11-16T00:24:23.620Z,99827.47
2022-11-16T00:26:50.777Z,99824.72
2022-11-16T00:29:22.983Z,99814.06
2022-11-16T00:31:49.571Z,99808.31
2022-11-16T00:34:16.198Z,99820.06
2022-11-16T00:36:42.987Z,99814.06
2022-11-16T00:39:16.865Z,99815.97
2022-11-16T00:41:45.959Z,99807.47
2022-11-16T00:44:12.862Z,99805.03
2022-11-16T00:46:39.853Z,99805.84
2022-11-16T00:49:07.155Z,99800.38
2022-11-16T00:51:34.659Z,99811.03
2022-11-16T00:54:01.850Z,99813.50
2022-11-16T00:56:29.435Z,99819.00
2022-11-16T00:58:55.922Z,99789.44
2022-11-16T01:01:22.517Z,99799.56
2022-11-16T01:03:50.940Z,99808.59
2022-11-16T01:06:20.242Z,99788.06
2022-11-16T01:08:46.740Z,99785.06
2022-11-16T01:11:33.803Z,99797.91
2022-11-16T01:14:05.925Z,99790.28
2022-11-16T01:16:32.661Z,99799.00
2022-11-16T01:18:59.569Z,99802.00
2022-11-16T01:21:27.854Z,99797.66
2022-11-16T01:23:55.642Z,99791.06
2022-11-16T01:26:22.098Z,99770.28
2022-11-16T01:28:48.689Z,99774.66
2022-11-16T01:31:15.167Z,99788.31
2022-11-16T01:33:42.037Z,99778.50
2022-11-16T01:36:17.231Z,99782.84
2022-11-16T01:38:45.602Z,99777.38
2022-11-16T01:41:16.108Z,99774.66
2022-11-16T01:44:00.199Z,99767.56
2022-11-16T01:46:32.752Z,99769.72
2022-11-16T01:49:05.382Z,99766.72
2022-11-16T01:51:33.422Z,99759.88
2022-11-16T01:54:03.204Z,99761.53
2022-11-16T01:56:32.717Z,99767.00
2022-11-16T01:59:09.422Z,99763.16
2022-11-16T02:01:36.149Z,99757.69
2022-11-16T02:04:04.362Z,99761.78
2022-11-16T02:06:41.050Z,99760.44
2022-11-16T02:09:53.712Z,99762.31
2022-11-16T02:13:13.406Z,99763.97
2022-11-16T02:15:48.632Z,99760.13
2022-11-16T02:18:24.588Z,99751.94
2022-11-16T02:21:20.454Z,99764.25
2022-11-16T02:24:02.580Z,99753.84
2022-11-16T02:26:38.135Z,99757.97
2022-11-16T02:29:26.038Z,99756.06
2022-11-16T02:32:05.049Z,99746.75
2022-11-16T02:34:38.156Z,99753.31
2022-11-16T02:37:09.411Z,99745.09
2022-11-16T02:39:38.858Z,99748.94
2022-11-16T02:42:12.337Z,99756.56
2022-11-16T02:44:44.890Z,99756.84
2022-11-16T02:47:18.930Z,99766.44
2022-11-16T02:49:54.182Z,99756.59
2022-11-16T02:52:22.625Z,99766.44
2022-11-16T02:54:49.334Z,99766.16
2022-11-16T02:57:42.463Z,99762.06
2022-11-16T03:00:18.571Z,99760.66
2022-11-16T03:03:07.908Z,99756.03
2022-11-16T03:05:46.580Z,99760.97
2022-11-16T03:08:36.348Z,99752.75
2022-11-16T03:11:26.799Z,99759.31
2022-11-16T03:14:03.476Z,99763.69
2022-11-16T03:16:45.997Z,99761.78
2022-11-16T03:19:17.003Z,99769.16
2022-11-16T03:21:48.887Z,99769.16
2022-11-16T03:24:15.654Z,99769.19
2022-11-16T03:26:58.403Z,99768.09
2022-11-16T03:29:38.487Z,99772.47
2022-11-16T03:32:21.755Z,99772.75
2022-11-16T03:34:59.072Z,99772.19
2022-11-16T03:37:27.953Z,99772.50
2022-11-16T03:39:56.957Z,99771.41
2022-11-16T03:42:25.966Z,99778.47
2022-11-16T03:44:54.233Z,99773.56
2022-11-16T03:47:20.730Z,99783.97
2022-11-16T03:49:47.992Z,99788.91
2022-11-16T03:52:18.770Z,99771.94
2022-11-16T03:54:47.229Z,99789.72
2022-11-16T03:57:18.118Z,99793.81
2022-11-16T03:59:49.954Z,99793.53
2022-11-16T04:02:16.493Z,99797.66
2022-11-16T04:05:01.817Z,99797.63
2022-11-16T04:07:46.992Z,99810.22
2022-11-16T04:10:33.259Z,99808.31
2022-11-16T04:13:19.425Z,99811.84
2022-11-16T04:16:04.481Z,99817.31
2022-11-16T04:18:49.672Z,99816.78
2022-11-16T04:21:43.489Z,99817.59
2022-11-16T04:24:16.953Z,99820.59
2022-11-16T04:27:06.222Z,99820.59
2022-11-16T04:29:33.191Z,99812.94
2022-11-16T04:32:18.259Z,99815.66
2022-11-16T04:35:03.438Z,99805.84
2022-11-16T04:37:48.677Z,99817.59
2022-11-16T04:40:29.319Z,99825.78
2022-11-16T04:42:58.673Z,99830.69
2022-11-16T04:45:47.194Z,99824.94
2022-11-16T04:48:18.057Z,99826.59
2022-11-16T04:50:44.786Z,99827.94
2022-11-16T04:53:11.921Z,99834.53
2022-11-16T04:55:46.030Z,99839.41
2022-11-16T04:58:13.786Z,99836.97
2022-11-16T05:00:40.524Z,99843.28
2022-11-16T05:03:08.027Z,99845.16
2022-11-16T05:05:35.348Z,99851.16
2022-11-16T05:08:01.876Z,99848.97
2022-11-16T05:10:31.085Z,99852.78
2022-11-16T05:12:57.630Z,99862.09
2022-11-16T05:15:25.044Z,99853.06
2022-11-16T05:17:54.820Z,99856.06
2022-11-16T05:20:43.308Z,99850.88
2022-11-16T05:23:29.820Z,99852.50
2022-11-16T05:26:00.157Z,99852.47
2022-11-16T05:28:28.015Z,99854.13
2022-11-16T05:30:55.158Z,99856.88
2022-11-16T05:33:25.190Z,99854.94
2022-11-16T05:35:52.091Z,99853.56
2022-11-16T05:38:19.704Z,99858.50
2022-11-16T05:40:51.544Z,99859.31
2022-11-16T05:43:18.010Z,99848.91
2022-11-16T05:45:54.187Z,99845.88
2022-11-16T05:48:21.126Z,99848.88
2022-11-16T05:50:48.551Z,99846.72
2022-11-16T05:53:22.149Z,99843.69
2022-11-16T05:55:48.913Z,99846.13
2022-11-16T05:58:16.322Z,99844.69
2022-11-16T06:00:42.962Z,99846.31
2022-11-16T06:03:10.610Z,99844.94
2022-11-16T06:05:40.483Z,99855.59
2022-11-16T06:08:08.793Z,99860.03
2022-11-16T06:10:36.802Z,99854.19
2022-11-16T06:13:03.523Z,99860.25
2022-11-16T06:15:30.299Z,99870.88
2022-11-16T06:17:57.562Z,99873.81
2022-11-16T06:20:25.028Z,99867.81
2022-11-16T06:22:53.037Z,99872.69
2022-11-16T06:25:20.503Z,99875.72
2022-11-16T06:27:47.039Z,99877.91
2022-11-16T06:30:16.458Z,99885.81
2022-11-16T06:32:44.661Z,99886.63
2022-11-16T06:35:11.265Z,99896.69
2022-11-16T06:37:38.844Z,99898.88
2022-11-16T06:40:07.147Z,99902.13
2022-11-16T06:42:36.778Z,99907.06
2022-11-16T06:45:04.046Z,99901.84
2022-11-16T06:47:36.718Z,99908.34
2022-11-16T06:50:04.348Z,99902.09
2022-11-16T06:52:31.163Z,99911.34
2022-11-16T06:54:58.365Z,99915.97
2022-11-16T06:57:24.846Z,99914.03
2022-11-16T06:59:51.329Z,99913.53
2022-11-16T07:02:20.393Z,99912.91
2022-11-16T07:04:47.872Z,99913.50
2022-11-16T07:07:18.224Z,99925.50
2022-11-16T07:09:45.600Z,99916.47
2022-11-16T07:12:13.852Z,99911.25
2022-11-16T07:14:40.867Z,99920.00
2022-11-16T07:17:09.770Z,99916.78
2022-11-16T07:19:36.890Z,99929.22
2022-11-16T07:22:04.209Z,99929.81
2022-11-16T07:24:31.117Z,99925.13
2022-11-16T07:26:57.838Z,99927.03
2022-11-16T07:29:26.496Z,99931.09
2022-11-16T07:32:31.887Z,99949.63
2022-11-16T07:35:07.422Z,99951.81
2022-11-16T07:37:35.526Z,99953.72
2022-11-16T07:40:03.035Z,99958.88
2022-11-16T07:42:30.804Z,99961.38
2022-11-16T07:45:07.182Z,99958.41
2022-11-16T07:47:38.341Z,99966.56
2022-11-16T07:50:07.779Z,99958.13
2022-11-16T07:52:35.244Z,99956.69
2022-11-16T07:55:07.046Z,99958.41
2022-11-16T07:57:34.271Z,99963.50
2022-11-16T08:00:05.740Z,99970.59
2022-11-16T08:02:44.833Z,99961.84
2022-11-16T08:05:17.378Z,99968.44
2022-11-16T08:07:44.474Z,99967.88
2022-11-16T08:10:11.312Z,99968.44
2022-11-16T08:12:37.917Z,99978.25
2022-11-16T08:15:05.985Z,99970.59
2022-11-16T08:17:32.931Z,99973.06
2022-11-16T08:19:59.433Z,99974.13
2022-11-16T08:22:25.972Z,99976.38
2022-11-16T08:24:52.571Z,99975.84
2022-11-16T08:27:19.112Z,99987.59
2022-11-16T08:29:50.527Z,99988.72
2022-11-16T08:32:17.123Z,99975.56
2022-11-16T08:34:44.112Z,99976.13
2022-11-16T08:37:10.723Z,99980.53
2022-11-16T08:39:41.780Z,99981.91
2022-11-16T08:42:09.442Z,99987.59
2022-11-16T08:44:37.048Z,99974.78
2022-11-16T08:47:08.566Z,99976.44
2022-11-16T08:49:39.020Z,99984.88
2022-11-16T08:52:06.083Z,99985.47
2022-11-16T08:54:33.689Z,99986.00
2022-11-16T08:57:00.287Z,99985.50
2022-11-16T08:59:29.370Z,99992.88
2022-11-16T09:02:00.280Z,99991.75
2022-11-16T09:04:29.585Z,99996.91
2022-11-16T09:06:58.062Z,99996.16
2022-11-16T09:09:24.574Z,100001.06
2022-11-16T09:11:53.484Z,99998.06
2022-11-16T09:14:19.941Z,100005.16
2022-11-16T09:16:46.407Z,100001.91
2022-11-16T09:19:12.860Z,100000.28
2022-11-16T09:21:39.329Z,100007.94
2022-11-16T09:24:05.890Z,100002.22
2022-11-16T09:26:32.482Z,100009.31
2022-11-16T09:29:00.827Z,100006.06
2022-11-16T09:31:30.913Z,100004.69
2022-11-16T09:33:58.695Z,100000.63
2022-11-16T09:36:27.043Z,100002.84
2022-11-16T09:39:25.734Z,99993.84
2022-11-16T09:41:57.109Z,99989.50
2022-11-16T09:45:05.045Z,100009.47
2022-11-16T09:47:56.243Z,100014.66
2022-11-16T09:50:55.113Z,100005.06
2022-11-16T09:53:46.395Z,100012.25
2022-11-16T09:56:26.987Z,100019.06
2022-11-16T09:59:00.142Z,100011.16
2022-11-16T10:01:26.895Z,100012.53
2022-11-16T10:04:06.504Z,100009.84
2022-11-16T10:06:44.536Z,100017.47
2022-11-16T10:09:12.484Z,100010.94
2022-11-16T10:11:50.896Z,100028.16
2022-11-16T10:15:01.564Z,100027.38
2022-11-16T10:17:52.644Z,100016.25
2022-11-16T10:20:39.021Z,100015.94
2022-11-16T10:23:29.510Z,100008.06
2022-11-16T10:26:02.594Z,99998.22
2022-11-16T10:28:38.449Z,100005.34
2022-11-16T10:31:30.860Z,100008.69
2022-11-16T10:34:01.521Z,100008.41
2022-11-16T10:36:32.598Z,100010.94
2022-11-16T10:39:00.658Z,100003.03
2022-11-16T10:41:40.986Z,99998.69
2022-11-16T10:44:39.122Z,100006.09
2022-11-16T10:47:18.515Z,100004.44
2022-11-16T10:50:00.295Z,99996.22
2022-11-16T10:52:26.754Z,99996.56
2022-11-16T10:54:53.229Z,99988.63
2022-11-16T10:57:20.210Z,99996.03
2022-11-16T10:59:49.166Z,100001.53
2022-11-16T11:02:32.564Z,99993.63
2022-11-16T11:05:18.072Z,100005.38
2022-11-16T11:07:49.516Z,99997.75
2022-11-16T11:10:30.669Z,100005.13
2022-11-16T11:13:10.765Z,100006.78
2022-11-16T11:15:39.177Z,99995.31
2022-11-16T11:18:13.438Z,99993.97
2022-11-16T11:20:45.174Z,99992.34
2022-11-16T11:23:21.677Z,99998.09
2022-11-16T11:25:50.793Z,99996.75
2022-11-16T11:28:25.009Z,99986.66
2022-11-16T11:31:03.858Z,99994.59
2022-11-16T11:33:34.489Z,99996.53
2022-11-16T11:36:18.575Z,99980.97
2022-11-16T11:39:06.394Z,99978.75
2022-11-16T11:41:36.675Z,99977.09
2022-11-16T11:44:05.935Z,99980.94
2022-11-16T11:47:18.139Z,99977.63
2022-11-16T11:49:33.618Z,99983.66
2022-11-16T11:52:08.909Z,99977.91
2022-11-16T11:54:45.547Z,99980.06
2022-11-16T11:57:20.597Z,99973.22
2022-11-16T11:59:48.028Z,99974.06
2022-11-16T12:02:48.940Z,99969.41
2022-11-16T12:05:36.997Z,99963.94
2022-11-16T12:08:26.646Z,99962.56
2022-11-16T12:11:09.291Z,99959.56
2022-11-16T12:14:01.176Z,99957.13
2022-11-16T12:16:42.606Z,99956.34
2022-11-16T12:19:43.014Z,99941.84
2022-11-16T12:22:29.671Z,99944.28
2022-11-16T12:25:21.045Z,99939.38
2022-11-16T12:27:50.438Z,99931.72
2022-11-16T12:30:21.035Z,99938.03
2022-11-16T12:32:53.243Z,99931.19
2022-11-16T12:35:41.671Z,99929.00
2022-11-16T12:38:29.694Z,99919.16
2022-11-16T12:41:02.146Z,99926.81
2022-11-16T12:43:47.295Z,99917.50
2022-11-16T12:46:39.573Z,99921.09
2022-11-16T12:49:33.410Z,99912.56
2022-11-16T12:52:24.670Z,99906.28
2022-11-16T12:55:27.931Z,99902.72
2022-11-16T12:58:12.869Z,99893.97
2022-11-16T13:00:53.821Z,99903.00
2022-11-16T13:03:29.314Z,99888.78
2022-11-16T13:06:05.299Z,99883.56
2022-11-16T13:08:51.938Z,99888.19
2022-11-16T13:11:24.549Z,99887.41
2022-11-16T13:13:57.819Z,99887.94
2022-11-16T13:16:25.306Z,99882.19
2022-11-16T13:18:53.802Z,99893.41
2022-11-16T13:21:45.063Z,99893.13
2022-11-16T13:24:20.635Z,99889.03
2022-11-16T13:27:08.482Z,99885.50
2022-11-16T13:29:51.152Z,99881.34
2022-11-16T13:32:40.798Z,99879.75
2022-11-16T13:35:16.733Z,99889.56
2022-11-16T13:37:44.193Z,99881.34
2022-11-16T13:40:21.296Z,99893.41
2022-11-16T13:43:04.799Z,99874.81
2022-11-16T13:45:55.059Z,99885.75
2022-11-16T13:48:38.416Z,99885.47
2022-11-16T13:51:15.203Z,99878.38
2022-11-16T13:56:49.925Z,99886.03
2022-11-16T13:59:22.638Z,99879.16
2022-11-16T14:01:57.879Z,99873.69
2022-11-16T14:04:56.832Z,99874.22
2022-11-16T14:07:42.661Z,99872.56
2022-11-16T14:10:11.920Z,99871.47
2022-11-16T14:12:38.361Z,99869.28
2022-11-16T14:15:15.390Z,99877.50
2022-11-16T14:17:59.702Z,99880.56
2022-11-16T14:20:47.959Z,99870.41
2022-11-16T14:23:33.323Z,99858.34
2022-11-16T14:26:02.742Z,99857.25
2022-11-16T14:28:43.017Z,99847.94
2022-11-16T14:31:12.243Z,99839.19
2022-11-16T14:33:39.134Z,99831.78
2022-11-16T14:36:08.152Z,99830.97
2022-11-16T14:38:38.726Z,99835.09
2022-11-16T14:41:19.008Z,99836.16
2022-11-16T14:43:55.153Z,99831.53
2022-11-16T14:46:35.484Z,99828.22
2022-11-16T14:49:02.929Z,99819.22
2022-11-16T14:51:33.138Z,99834.81
2022-11-16T14:54:04.963Z,99830.72
2022-11-16T14:56:31.274Z,99824.66
2022-11-16T14:58:59.649Z,99823.03
2022-11-16T15:01:38.983Z,99807.19
2022-11-16T15:04:12.113Z,99805.25
2022-11-16T15:06:44.481Z,99803.63
2022-11-16T15:09:19.543Z,99809.94
2022-11-16T15:12:07.996Z,99806.38
2022-11-16T15:14:44.259Z,99797.91
2022-11-16T15:17:17.192Z,99782.00
2022-11-16T15:19:44.200Z,99778.19
2022-11-16T15:22:18.677Z,99796.00
2022-11-16T15:24:57.718Z,99797.63
2022-11-16T15:27:33.421Z,99777.38
2022-11-16T15:30:12.765Z,99762.09
2022-11-16T15:32:44.024Z,99751.41
2022-11-16T15:35:19.194Z,99778.75
2022-11-16T15:37:45.814Z,99770.84
2022-11-16T15:40:13.094Z,99763.44
2022-11-16T15:42:41.848Z,99767.84
2022-11-16T15:45:18.262Z,99765.34
2022-11-16T15:47:46.998Z,99747.31
2022-11-16T15:50:19.235Z,99752.22
2022-11-16T15:52:52.640Z,99750.06
2022-11-16T15:55:40.485Z,99756.88
2022-11-16T15:58:13.864Z,99748.13
2022-11-16T16:00:41.336Z,99744.59
2022-11-16T16:03:32.732Z,99736.38
2022-11-16T16:05:59.742Z,99722.16
2022-11-16T16:08:35.143Z,99720.50
2022-11-16T16:11:11.722Z,99718.06
2022-11-16T16:13:44.092Z,99714.25
2022-11-16T16:16:39.024Z,99711.25
2022-11-16T16:19:27.057Z,99715.88
2022-11-16T16:21:53.687Z,99703.88
2022-11-16T16:24:44.570Z,99711.50
2022-11-16T16:27:22.612Z,99713.44
2022-11-16T16:29:51.370Z,99704.66
2022-11-16T16:32:28.227Z,99705.75
2022-11-16T16:34:57.086Z,99698.66
2022-11-16T16:37:26.456Z,99697.56
2022-11-16T16:39:53.238Z,99688.53
2022-11-16T16:42:19.704Z,99696.19
2022-11-16T16:44:47.562Z,99683.88
2022-11-16T16:47:15.196Z,99698.66
2022-11-16T16:49:41.840Z,99687.16
2022-11-16T16:52:11.689Z,99689.63
2022-11-16T16:54:38.512Z,99683.34
2022-11-16T16:57:05.085Z,99683.88
2022-11-16T16:59:31.922Z,99674.03
2022-11-16T17:01:59.102Z,99689.34
2022-11-16T17:04:25.859Z,99674.59
2022-11-16T17:06:53.342Z,99677.03
2022-11-16T17:09:20.248Z,99668.59
2022-11-16T17:11:47.447Z,99666.91
2022-11-16T17:14:14.146Z,99664.47
2022-11-16T17:16:40.753Z,99660.31
2022-11-16T17:19:07.199Z,99663.59
2022-11-16T17:21:33.653Z,99655.97
2022-11-16T17:24:00.151Z,99660.84
2022-11-16T17:26:29.260Z,99657.06
2022-11-16T17:28:56.948Z,99653.22
2022-11-16T17:31:24.564Z,99659.25
2022-11-16T17:33:51.650Z,99657.34
2022-11-16T17:36:18.455Z,99649.13
2022-11-16T17:38:45.278Z,99652.66
2022-11-16T17:41:14.663Z,99639.56
2022-11-16T17:43:42.808Z,99637.09
2022-11-16T17:46:18.227Z,99635.47
2022-11-16T17:48:47.032Z,99624.81
2022-11-16T17:51:16.492Z,99624.81
2022-11-16T17:53:46.042Z,99612.78
2022-11-16T17:56:14.635Z,99621.53
2022-11-16T17:58:41.636Z,99623.19
2022-11-16T18:01:08.179Z,99629.72
2022-11-16T18:03:38.733Z,99632.47
2022-11-16T18:06:08.426Z,99621.53
2022-11-16T18:08:36.402Z,99631.66
2022-11-16T18:11:07.858Z,99628.06
2022-11-16T18:13:34.717Z,99614.97
2022-11-16T18:16:10.528Z,99636.00
2022-11-16T18:18:38.290Z,99627.53
2022-11-16T18:21:06.267Z,99627.25
2022-11-16T18:23:34.358Z,99624.81
2022-11-16T18:26:03.113Z,99620.16
2022-11-16T18:28:30.162Z,99616.06
2022-11-16T18:31:04.589Z,99624.28
2022-11-16T18:33:31.184Z,99617.13
2022-11-16T18:35:57.883Z,99623.97
2022-11-16T18:38:24.370Z,99618.78
2022-11-16T18:41:11.404Z,99633.53
2022-11-16T18:43:52.096Z,99627.53
2022-11-16T18:46:20.008Z,99624.81
2022-11-16T18:48:46.731Z,99621.50
2022-11-16T18:51:14.525Z,99612.22
2022-11-16T18:53:41.033Z,99604.34
2022-11-16T18:56:07.818Z,99606.50
2022-11-16T18:58:52.004Z,99606.25
2022-11-16T19:01:22.403Z,99607.84
2022-11-16T19:03:49.321Z,99596.94
2022-11-16T19:06:17.483Z,99592.31
2022-11-16T19:08:46.911Z,99587.13
2022-11-16T19:11:16.929Z,99578.66
2022-11-16T19:13:44.592Z,99585.75
2022-11-16T19:16:13.165Z,99566.09
2022-11-16T19:18:40.036Z,99560.09
2022-11-16T19:21:11.023Z,99557.91
2022-11-16T19:23:43.339Z,99552.72
2022-11-16T19:26:12.680Z,99534.41
2022-11-16T19:28:40.839Z,99533.06
2022-11-16T19:31:12.584Z,99531.69
2022-11-16T19:33:39.655Z,99519.41
2022-11-16T19:36:10.941Z,99522.94
2022-11-16T19:38:38.038Z,99514.75
2022-11-16T19:41:04.925Z,99500.84
2022-11-16T19:43:32.143Z,99492.38
2022-11-16T19:46:17.453Z,99490.47
2022-11-16T19:48:44.992Z,99484.44
2022-11-16T19:51:17.776Z,99480.09
2022-11-16T19:53:44.583Z,99461.00
2022-11-16T19:56:13.535Z,99457.16
2022-11-16T19:58:40.844Z,99454.44
2022-11-16T20:01:11.268Z,99454.16
2022-11-16T20:03:38.518Z,99438.59
2022-11-16T20:06:16.560Z,99425.50
2022-11-16T20:08:47.596Z,99420.88
2022-11-16T20:11:18.362Z,99424.94
2022-11-16T20:13:44.808Z,99415.16
2022-11-16T20:16:12.831Z,99411.31
2022-11-16T20:18:41.083Z,99408.88
2022-11-16T20:21:14.888Z,99417.31
2022-11-16T20:23:41.339Z,99406.94
2022-11-16T20:26:11.014Z,99402.59
2022-11-16T20:28:39.490Z,99402.59
2022-11-16T20:31:11.889Z,99399.03
2022-11-16T20:33:38.963Z,99387.28
2022-11-16T20:36:07.976Z,99384.00
2022-11-16T20:38:35.987Z,99382.09
2022-11-16T20:41:09.374Z,99387.03
2022-11-16T20:43:36.557Z,99380.19
2022-11-16T20:46:03.321Z,99372.81
2022-11-16T20:48:29.789Z,99366.53
2022-11-16T20:50:56.318Z,99369.28
2022-11-16T20:53:22.903Z,99369.28
2022-11-16T20:55:50.017Z,99355.91
2022-11-16T20:58:22.437Z,99359.72
2022-11-16T21:00:49.861Z,99358.34
2022-11-16T21:03:16.543Z,99345.00
2022-11-16T21:05:45.121Z,99341.16
2022-11-16T21:08:12.174Z,99344.72
2022-11-16T21:10:39.666Z,99329.97
2022-11-16T21:13:25.736Z,99324.50
2022-11-16T21:15:59.958Z,99319.59
2022-11-16T21:18:30.711Z,99322.59
2022-11-16T21:21:02.062Z,99307.06
2022-11-16T21:23:29.937Z,99307.06
2022-11-16T21:26:02.301Z,99305.94
2022-11-16T21:28:29.515Z,99290.94
2022-11-16T21:31:07.666Z,99298.00
2022-11-16T21:33:34.372Z,99287.91
2022-11-16T21:36:09.636Z,99286.28
2022-11-16T21:38:36.255Z,99281.91
2022-11-16T21:41:04.268Z,99274.81
2022-11-16T21:43:33.761Z,99266.06
2022-11-16T21:46:05.460Z,99264.97
2022-11-16T21:48:35.673Z,99256.78
2022-11-16T21:51:04.160Z,99249.16
2022-11-16T21:53:33.896Z,99238.75
2022-11-16T21:56:01.368Z,99237.69
2022-11-16T21:58:27.823Z,99226.78
2022-11-16T22:00:58.966Z,99230.63
2022-11-16T22:03:26.808Z,99218.06
2022-11-16T22:06:12.954Z,99218.88
2022-11-16T22:08:39.882Z,99207.16
2022-11-16T22:11:07.841Z,99192.94
2022-11-16T22:13:35.283Z,99192.16
2022-11-16T22:16:06.022Z,99161.59
2022-11-16T22:18:32.990Z,99156.38
2022-11-16T22:21:00.770Z,99139.50
2022-11-16T22:23:28.284Z,99141.41
2022-11-16T22:25:55.180Z,99132.41
2022-11-16T22:28:21.742Z,99125.28
2022-11-16T22:30:51.657Z,99117.66
2022-11-16T22:33:18.801Z,99102.09
2022-11-16T22:35:46.959Z,99090.38
2022-11-16T22:38:13.414Z,99060.34
2022-11-16T22:40:39.882Z,99068.53
2022-11-16T22:43:06.384Z,99058.78
2022-11-16T22:45:32.875Z,99043.44
2022-11-16T22:47:59.373Z,99051.91
2022-11-16T22:50:25.856Z,99038.53
2022-11-16T22:52:52.325Z,99032.00
2022-11-16T22:55:18.778Z,99022.19
2022-11-16T22:57:45.230Z,99014.53
2022-11-16T23:00:12.124Z,99011.25
2022-11-16T23:02:38.604Z,99008.25
2022-11-16T23:05:05.396Z,98997.34
2022-11-16T23:07:31.993Z,99000.88
2022-11-16T23:09:58.491Z,98990.78
2022-11-16T23:12:43.596Z,98980.97
2022-11-16T23:15:31.187Z,98970.88
2022-11-16T23:17:58.002Z,98954.50
2022-11-16T23:20:42.888Z,98950.66
2022-11-16T23:23:38.142Z,98940.56
2022-11-16T23:26:30.348Z,98930.25
2022-11-16T23:28:56.786Z,98930.16
2022-11-16T23:31:23.455Z,98919.28
2022-11-16T23:33:49.972Z,98907.53
2022-11-16T23:36:16.466Z,98902.06
2022-11-16T23:38:42.959Z,98890.88
2022-11-16T23:41:27.922Z,98879.97
2022-11-16T23:44:00.009Z,98861.16
2022-11-16T23:46:31.561Z,98863.06
2022-11-16T23:48:58.403Z,98850.22
2022-11-16T23:51:25.418Z,98843.13
2022-11-16T23:53:53.107Z,98826.47
2022-11-16T23:56:23.420Z,98819.13
2022-11-16T23:58:50.138Z,98791.38
